Time;durP1;ratioP1;P1;durP2;ratioP2;P2;SDS_P1;SDS_P2;PMS_P1;PMS_P2;Temp;Humidity;BMP_temperature;BMP_pressure;BME280_temperature;BME280_humidity;BME280_pressure;Samples;Min_cycle;Max_cycle;Signal;HPM_P1;HPM_P2
2022/06/06 00:00:39;;;;;;;9.13;5.82;;;;;;;17.41;95.06;100536.28;6050648;28;20034;-67
2022/06/06 00:03:35;;;;;;;9.98;6.93;;;;;;;17.43;94.84;100539.59;6051025;28;20068;-66
2022/06/06 00:06:30;;;;;;;9.80;6.97;;;;;;;17.38;94.89;100542.03;6051106;28;20589;-67
2022/06/06 00:09:26;;;;;;;9.90;6.77;;;;;;;17.27;94.93;100534.50;6051301;28;20040;-67
2022/06/06 00:12:23;;;;;;;9.13;5.80;;;;;;;17.26;94.77;100547.06;6050733;28;20428;-67
2022/06/06 00:15:18;;;;;;;9.15;5.22;;;;;;;17.29;94.49;100548.53;6050716;28;20045;-64
2022/06/06 00:18:13;;;;;;;7.93;5.63;;;;;;;17.30;93.80;100538.66;6050044;28;20113;-67
2022/06/06 00:21:11;;;;;;;8.80;5.93;;;;;;;17.33;93.94;100532.91;6049638;28;20041;-66
2022/06/06 00:24:07;;;;;;;8.60;5.88;;;;;;;17.40;93.32;100542.66;6050913;28;20500;-67
2022/06/06 00:27:04;;;;;;;9.15;6.28;;;;;;;17.41;92.40;100528.25;6049383;28;20034;-67
2022/06/06 00:29:59;;;;;;;8.57;5.25;;;;;;;17.46;92.09;100557.97;6050568;28;20038;-67
2022/06/06 00:36:08;;;;;;;8.00;5.10;;;;;;;17.20;90.81;100534.44;6050252;28;20041;-67
2022/06/06 00:39:06;;;;;;;6.78;4.28;;;;;;;17.24;90.30;100535.72;6050717;28;20125;-67
2022/06/06 00:42:01;;;;;;;6.60;4.47;;;;;;;17.07;90.39;100533.50;6049025;28;20029;-64
2022/06/06 00:45:26;;;;;;;6.80;4.80;;;;;;;17.06;90.97;100543.41;6050208;28;20037;-67
2022/06/06 00:48:26;;;;;;;7.45;4.20;;;;;;;17.00;91.14;100548.69;6048929;28;20290;-64
2022/06/06 00:51:21;;;;;;;6.78;4.05;;;;;;;16.85;91.18;100535.34;6049076;28;20040;-64
2022/06/06 00:54:17;;;;;;;6.80;4.10;;;;;;;16.74;91.96;100540.41;6050283;28;20029;-64
2022/06/06 00:57:17;;;;;;;5.20;4.00;;;;;;;16.65;91.88;100537.84;6048981;28;20022;-65
2022/06/06 01:00:16;;;;;;;9.30;4.70;;;;;;;16.56;92.28;100530.09;6064738;28;20602;-64
2022/06/06 01:03:14;;;;;;;5.63;3.92;;;;;;;16.50;92.75;100542.34;6048131;28;20088;-64
2022/06/06 01:06:13;;;;;;;6.18;3.72;;;;;;;16.44;92.16;100534.28;6049727;28;20034;-67
2022/06/06 01:09:09;;;;;;;6.10;3.95;;;;;;;16.29;92.20;100539.63;6050003;28;20087;-67
2022/06/06 01:12:09;;;;;;;6.28;3.80;;;;;;;16.24;92.80;100542.06;6044199;28;20061;-67
2022/06/06 01:15:09;;;;;;;5.78;3.75;;;;;;;16.27;91.87;100551.56;6050055;28;20034;-66
2022/06/06 01:19:02;;;;;;;6.07;4.00;;;;;;;16.27;92.02;100554.22;6049445;28;20033;-67
2022/06/06 01:22:11;;;;;;;6.97;3.55;;;;;;;16.20;91.67;100567.50;5973618;29;20139;-66
2022/06/06 01:25:44;;;;;;;6.78;3.85;;;;;;;16.17;92.04;100543.78;5981787;28;20039;-66
2022/06/06 01:28:54;;;;;;;6.97;4.18;;;;;;;16.11;91.77;100549.91;6049642;28;20052;-67
2022/06/06 01:31:55;;;;;;;6.57;3.50;;;;;;;16.00;91.74;100545.03;6064070;28;20042;-67
2022/06/06 01:34:53;;;;;;;5.45;3.70;;;;;;;15.99;91.20;100533.50;6051620;28;20030;-66
2022/06/06 01:37:49;;;;;;;5.50;3.70;;;;;;;15.90;91.31;100533.75;6049246;28;20033;-66
2022/06/06 01:41:06;;;;;;;6.10;3.75;;;;;;;15.88;91.87;100525.09;6048724;28;20033;-64
2022/06/06 01:44:07;;;;;;;4.97;3.60;;;;;;;15.87;91.58;100539.50;6053477;28;20123;-66
2022/06/06 01:47:05;;;;;;;7.13;3.50;;;;;;;15.74;91.13;100542.78;6080567;28;20038;-67
2022/06/06 01:50:01;;;;;;;4.95;3.30;;;;;;;15.78;91.06;100545.94;6064290;28;20224;-66
2022/06/06 01:53:06;;;;;;;6.50;3.97;;;;;;;15.76;90.22;100558.69;6047359;28;20046;-64
2022/06/06 01:56:02;;;;;;;5.97;3.78;;;;;;;15.81;90.17;100556.28;6049147;28;20087;-65
2022/06/06 01:58:57;;;;;;;6.35;3.88;;;;;;;15.77;89.59;100565.66;6055306;28;20076;-65
2022/06/06 02:01:53;;;;;;;6.30;3.50;;;;;;;15.86;89.69;100564.56;6047672;28;20659;-65
2022/06/06 02:04:48;;;;;;;5.97;3.70;;;;;;;15.88;89.12;100554.50;6048921;28;20272;-65
2022/06/06 02:07:44;;;;;;;5.63;3.90;;;;;;;16.00;88.73;100545.03;6049257;28;20478;-64
2022/06/06 02:10:39;;;;;;;7.22;4.20;;;;;;;16.06;88.28;100555.81;6053095;28;20033;-65
2022/06/06 02:13:34;;;;;;;7.00;3.67;;;;;;;16.13;87.79;100558.56;6054669;28;20033;-65
2022/06/06 02:16:30;;;;;;;5.77;3.37;;;;;;;16.15;87.78;100559.22;6067348;28;20025;-65
2022/06/06 02:19:25;;;;;;;6.53;3.90;;;;;;;16.26;87.69;100558.75;6069205;28;20030;-65
2022/06/06 02:22:20;;;;;;;6.70;3.40;;;;;;;16.33;88.03;100557.00;6052368;28;20048;-65
2022/06/06 02:25:16;;;;;;;5.45;3.80;;;;;;;16.17;88.06;100556.38;6053528;28;20041;-65
2022/06/06 02:28:11;;;;;;;6.75;3.85;;;;;;;16.26;88.21;100560.59;6057174;28;20048;-64
2022/06/06 02:31:07;;;;;;;6.93;3.78;;;;;;;16.05;87.78;100553.31;6052328;28;20034;-65
2022/06/06 02:34:06;;;;;;;10.48;3.90;;;;;;;16.09;87.90;100555.44;6053585;28;20037;-65
2022/06/06 02:37:02;;;;;;;10.20;4.25;;;;;;;16.16;88.12;100560.06;6052951;28;20041;-64
2022/06/06 02:39:57;;;;;;;8.73;3.97;;;;;;;16.05;88.51;100554.16;6053296;28;20493;-65
2022/06/06 02:42:53;;;;;;;6.77;5.10;;;;;;;16.09;88.22;100559.94;6052660;28;20033;-64
2022/06/06 02:45:50;;;;;;;10.25;5.45;;;;;;;16.20;87.37;100558.69;6052551;28;20064;-65
2022/06/06 02:48:45;;;;;;;8.43;4.97;;;;;;;16.33;86.46;100564.19;6053267;28;20029;-65
2022/06/06 02:51:40;;;;;;;8.63;5.10;;;;;;;16.27;86.06;100559.56;6051677;28;20040;-65
2022/06/06 02:54:36;;;;;;;7.43;4.47;;;;;;;16.25;86.86;100559.75;6053174;28;20033;-64
2022/06/06 02:57:35;;;;;;;7.63;4.33;;;;;;;16.17;87.11;100570.56;6058707;28;20034;-65
2022/06/06 03:00:32;;;;;;;8.55;4.63;;;;;;;16.19;87.50;100565.03;6052053;28;20069;-65
2022/06/06 03:03:28;;;;;;;7.80;4.38;;;;;;;16.16;86.72;100566.25;6052651;28;20132;-65
2022/06/06 03:06:46;;;;;;;8.02;4.68;;;;;;;16.29;86.75;100570.91;6052437;28;20030;-65
2022/06/06 03:10:15;;;;;;;7.15;4.40;;;;;;;16.39;86.35;100582.16;6068117;28;20107;-65
2022/06/06 03:13:30;;;;;;;8.52;5.20;;;;;;;16.42;86.87;100582.63;6050624;28;20046;-65
2022/06/06 03:20:47;;;;;;;7.47;4.72;;;;;;;16.38;86.50;100600.09;6043013;28;20057;-65
2022/06/06 03:23:54;;;;;;;7.65;3.58;;;;;;;16.45;85.87;100595.63;6055617;28;20059;-65
2022/06/06 03:26:52;;;;;;;6.72;4.43;;;;;;;16.47;86.29;100590.91;6055995;28;20029;-65
2022/06/06 03:30:09;;;;;;;7.57;3.95;;;;;;;16.39;86.54;100587.50;6074694;28;20049;-65
2022/06/06 03:33:05;;;;;;;8.68;4.82;;;;;;;16.28;86.57;100606.75;6051482;28;20370;-65
2022/06/06 03:36:11;;;;;;;9.40;4.80;;;;;;;16.24;86.86;100610.78;6061433;28;20080;-65
2022/06/06 03:39:30;;;;;;;8.00;5.18;;;;;;;16.21;87.43;100617.34;6052048;28;20489;-65
2022/06/06 03:42:40;;;;;;;8.82;4.80;;;;;;;16.12;87.04;100598.88;6066136;28;20096;-65
2022/06/06 03:45:42;;;;;;;9.27;4.65;;;;;;;16.13;87.11;100606.72;6051728;28;20030;-65
2022/06/06 03:48:52;;;;;;;10.35;5.18;;;;;;;16.23;86.68;100612.63;6046713;28;20385;-64
2022/06/06 03:52:05;;;;;;;8.40;4.55;;;;;;;16.29;86.57;100609.22;6049998;28;20029;-65
2022/06/06 03:55:09;;;;;;;;;;;;;;;16.31;86.63;100620.56;6051166;28;20080;-65
2022/06/06 03:58:05;;;;;;;8.55;4.25;;;;;;;16.44;86.47;100611.91;6050615;28;19971;-64
2022/06/06 04:01:04;;;;;;;6.45;4.10;;;;;;;16.69;85.92;100621.28;6065982;28;20355;-65
2022/06/06 04:04:00;;;;;;;9.23;5.38;;;;;;;16.59;85.20;100610.03;6051213;28;20113;-65
2022/06/06 04:06:57;;;;;;;7.15;4.60;;;;;;;16.52;85.84;100607.25;6050911;28;20440;-65
2022/06/06 04:09:53;;;;;;;7.75;4.85;;;;;;;16.54;85.90;100607.09;6051110;28;20030;-65
2022/06/06 04:13:04;;;;;;;8.10;4.80;;;;;;;16.52;86.21;100620.63;6050206;28;20037;-65
2022/06/06 04:16:12;;;;;;;7.10;4.40;;;;;;;16.65;85.70;100615.50;6050689;28;20041;-65
2022/06/06 04:19:35;;;;;;;8.98;4.82;;;;;;;16.55;86.04;100608.78;6050827;28;20040;-65
2022/06/06 04:23:06;;;;;;;9.68;4.65;;;;;;;16.42;86.07;100609.38;6048618;28;20033;-65
2022/06/06 04:26:11;;;;;;;9.40;4.72;;;;;;;16.42;86.84;100609.38;6066188;28;20097;-66
2022/06/06 04:29:31;;;;;;;9.23;5.03;;;;;;;16.42;87.06;100630.81;6050778;28;20034;-65
2022/06/06 04:32:44;;;;;;;10.25;5.40;;;;;;;16.45;86.43;100632.28;6063927;28;20041;-65
2022/06/06 04:35:44;;;;;;;;;;;;;;;16.57;86.10;100629.00;6065923;28;20551;-64
2022/06/06 04:38:47;;;;;;;9.77;5.30;;;;;;;16.60;85.38;100638.50;6052012;28;19909;-65
2022/06/06 04:42:04;;;;;;;7.78;5.00;;;;;;;16.67;84.37;100629.53;6049095;28;20368;-64
2022/06/06 04:45:17;;;;;;;8.50;4.63;;;;;;;16.79;84.47;100634.41;6040229;28;20048;-65
2022/06/06 04:48:13;;;;;;;9.05;5.28;;;;;;;16.93;83.12;100634.34;6081886;28;20503;-65
2022/06/06 04:51:11;;;;;;;10.02;5.30;;;;;;;17.07;82.50;100635.31;6049017;28;20092;-66
2022/06/06 04:54:08;;;;;;;9.50;5.15;;;;;;;17.15;80.79;100627.16;6051989;28;20034;-65
2022/06/06 04:57:04;;;;;;;8.23;4.80;;;;;;;17.20;81.65;100630.94;6066028;28;20481;-66
2022/06/06 04:59:59;;;;;;;10.93;5.53;;;;;;;17.07;81.42;100640.69;6049125;28;20045;-67
2022/06/06 05:02:55;;;;;;;9.77;5.80;;;;;;;17.07;80.88;100636.16;6047969;28;20034;-65
2022/06/06 05:06:09;;;;;;;10.83;5.87;;;;;;;17.57;78.90;100632.56;6049618;28;20033;-65
2022/06/06 05:09:35;;;;;;;11.38;5.75;;;;;;;17.73;77.57;100640.31;6057122;28;20042;-65
2022/06/06 05:12:43;;;;;;;11.38;6.57;;;;;;;18.16;75.58;100637.53;6048419;28;20030;-64
2022/06/06 05:16:00;;;;;;;11.88;6.05;;;;;;;18.58;74.90;100658.88;6048232;28;20466;-65
2022/06/06 05:19:02;;;;;;;12.18;6.75;;;;;;;18.02;74.44;100660.75;6049454;28;20045;-64
2022/06/06 05:22:21;;;;;;;14.07;7.32;;;;;;;17.64;76.57;100667.47;6040101;28;20052;-65
2022/06/06 05:25:33;;;;;;;15.07;8.18;;;;;;;17.58;77.29;100677.09;6049345;28;20034;-64
2022/06/06 05:29:06;;;;;;;13.80;7.40;;;;;;;17.40;77.32;100678.53;6049829;28;20030;-65
2022/06/06 05:32:16;;;;;;;16.50;8.02;;;;;;;17.33;77.68;100683.88;6047597;28;20030;-65
2022/06/06 05:35:25;;;;;;;16.05;8.00;;;;;;;17.19;78.32;100685.56;6050982;28;20034;-64
2022/06/06 05:38:43;;;;;;;17.40;8.48;;;;;;;17.07;78.90;100695.09;6067959;28;20037;-65
2022/06/06 05:41:56;;;;;;;14.90;7.75;;;;;;;17.12;79.31;100691.88;6063894;28;20065;-66
2022/06/06 05:45:13;;;;;;;14.98;7.35;;;;;;;17.13;79.11;100699.72;6054555;28;20038;-65
2022/06/06 05:48:40;;;;;;;16.48;8.15;;;;;;;17.37;78.06;100689.66;6057731;28;20088;-64
2022/06/06 05:51:43;;;;;;;18.73;8.93;;;;;;;17.53;77.92;100692.09;6057690;28;20032;-65
2022/06/06 05:55:12;;;;;;;16.85;7.88;;;;;;;17.50;77.29;100690.63;6072219;28;20060;-65
2022/06/06 05:58:22;;;;;;;18.67;8.65;;;;;;;17.38;76.90;100691.31;6056496;28;20052;-65
2022/06/06 06:01:36;;;;;;;17.20;8.18;;;;;;;17.32;77.08;100687.56;6055926;28;20056;-64
2022/06/06 06:04:52;;;;;;;16.85;8.85;;;;;;;17.20;77.72;100708.66;6057110;28;21825;-65
2022/06/06 06:07:56;;;;;;;16.30;8.13;;;;;;;17.20;78.31;100723.94;6058643;28;20030;-65
2022/06/06 06:11:06;;;;;;;16.80;8.30;;;;;;;17.27;77.85;100720.28;6056387;28;20109;-64
2022/06/06 06:14:30;;;;;;;16.00;8.43;;;;;;;17.41;77.63;100725.78;6072221;28;20416;-65
2022/06/06 06:17:28;;;;;;;14.07;6.78;;;;;;;17.54;75.54;100731.31;6056935;28;20038;-65
2022/06/06 06:20:27;;;;;;;14.57;7.30;;;;;;;17.84;74.27;100731.03;6063850;28;20344;-64
2022/06/06 06:23:27;;;;;;;13.65;6.60;;;;;;;17.79;75.92;100737.97;6055529;28;20037;-64
2022/06/06 06:26:22;;;;;;;14.18;7.15;;;;;;;17.69;73.79;100735.59;6069985;28;20125;-64
2022/06/06 06:29:17;;;;;;;11.60;6.57;;;;;;;17.83;73.63;100736.56;6055365;28;20040;-65
2022/06/06 06:32:28;;;;;;;12.53;5.93;;;;;;;17.82;73.76;100746.50;6053309;28;20045;-64
2022/06/06 06:36:07;;;;;;;12.80;6.55;;;;;;;17.85;74.20;100754.13;6066636;28;20351;-65
2022/06/06 06:39:14;;;;;;;12.02;6.40;;;;;;;17.65;74.39;100737.03;6040600;28;20572;-65
2022/06/06 06:42:41;;;;;;;15.38;6.82;;;;;;;17.75;75.28;100747.41;6054126;28;20037;-65
2022/06/06 06:45:51;;;;;;;12.90;7.38;;;;;;;17.64;75.28;100762.19;6049260;28;20066;-65
2022/06/06 06:48:48;;;;;;;12.63;7.00;;;;;;;17.52;75.07;100763.69;6055407;28;20038;-64
2022/06/06 06:51:54;;;;;;;13.73;7.03;;;;;;;17.50;75.61;100763.00;6085249;28;20025;-65
2022/06/06 06:55:16;;;;;;;13.45;6.97;;;;;;;17.68;74.48;100774.19;6075342;28;20034;-64
2022/06/06 06:58:11;;;;;;;16.85;8.07;;;;;;;17.89;74.16;100775.22;6074126;28;20458;-64
2022/06/06 07:01:16;;;;;;;14.02;6.82;;;;;;;18.30;72.64;100778.88;6052400;28;20036;-64
2022/06/06 07:11:00;;;;;;;12.98;6.03;;;;;;;19.63;69.04;100764.13;6064680;28;20493;-64
2022/06/06 07:14:26;;;;;;;10.75;6.03;;;;;;;20.63;64.47;100756.72;6051869;28;20042;-65
2022/06/06 07:17:23;;;;;;;12.07;6.68;;;;;;;20.30;64.40;100752.44;6052245;28;20569;-65
2022/06/06 07:20:19;;;;;;;11.68;6.00;;;;;;;19.42;67.68;100757.06;6067075;28;20030;-65
2022/06/06 07:23:16;;;;;;;10.93;6.15;;;;;;;19.07;66.88;100755.44;6051791;28;20064;-65
2022/06/06 07:26:12;;;;;;;11.88;5.47;;;;;;;19.02;68.68;100769.47;6051881;28;20508;-65
2022/06/06 07:29:10;;;;;;;11.35;5.85;;;;;;;19.00;68.67;100759.94;6050561;28;20030;-66
2022/06/06 07:32:27;;;;;;;11.88;5.75;;;;;;;18.84;68.62;100765.66;6050493;28;20393;-64
2022/06/06 07:35:51;;;;;;;9.90;5.43;;;;;;;18.94;68.26;100768.81;6049095;28;20068;-65
2022/06/06 07:38:55;;;;;;;11.13;4.97;;;;;;;19.17;67.55;100750.50;6047975;28;20042;-65
2022/06/06 07:42:32;;;;;;;11.73;5.28;;;;;;;19.94;66.29;100750.94;6049360;28;20044;-66
2022/06/06 07:45:46;;;;;;;9.35;4.47;;;;;;;20.02;65.95;100755.28;6068512;28;20030;-65
2022/06/06 07:48:51;;;;;;;9.25;4.45;;;;;;;20.68;64.56;100751.53;6042557;28;20493;-65
2022/06/06 07:52:08;;;;;;;8.60;4.72;;;;;;;21.35;61.83;100743.03;6076156;28;20409;-64
2022/06/06 07:55:31;;;;;;;7.90;4.60;;;;;;;21.72;59.92;100743.22;6045998;28;20084;-65
2022/06/06 07:58:36;;;;;;;9.07;4.47;;;;;;;21.55;60.67;100752.91;6042056;28;20125;-65
2022/06/06 08:02:03;;;;;;;8.05;4.22;;;;;;;20.74;59.59;100750.69;6045507;28;20034;-64
2022/06/06 08:05:20;;;;;;;8.82;4.93;;;;;;;20.21;62.30;100759.84;6048042;28;20488;-65
2022/06/06 08:08:43;;;;;;;8.88;5.18;;;;;;;19.80;63.89;100762.72;6059080;28;20042;-65
2022/06/06 08:11:59;;;;;;;8.00;4.47;;;;;;;19.72;65.43;100770.16;6044715;28;20109;-65
2022/06/06 08:15:08;;;;;;;9.32;5.32;;;;;;;19.60;67.11;100772.63;6046344;28;20448;-66
2022/06/06 08:18:30;;;;;;;9.88;4.78;;;;;;;19.86;65.80;100771.84;6081005;28;20038;-64
2022/06/06 08:21:33;;;;;;;11.75;5.15;;;;;;;19.90;65.54;100773.91;6046319;28;20111;-65
2022/06/06 08:24:36;;;;;;;9.13;5.03;;;;;;;20.16;64.72;100760.47;6063598;28;20397;-65
2022/06/06 08:27:32;;;;;;;9.40;4.47;;;;;;;20.35;63.52;100761.56;6050527;28;20030;-66
2022/06/06 08:30:27;;;;;;;10.38;5.10;;;;;;;20.23;63.61;100776.63;6045879;28;20034;-65
2022/06/06 08:33:22;;;;;;;10.70;4.10;;;;;;;20.24;61.51;100782.84;6048403;28;20041;-64
2022/06/06 08:36:30;;;;;;;7.40;4.00;;;;;;;20.48;63.21;100776.88;6046945;28;20499;-65
2022/06/06 08:39:53;;;;;;;9.02;4.60;;;;;;;20.59;61.90;100768.97;6039190;28;20022;-65
2022/06/06 08:42:59;;;;;;;8.00;4.28;;;;;;;21.64;61.36;100775.88;6067118;28;20040;-64
2022/06/06 08:46:28;;;;;;;7.30;3.97;;;;;;;21.97;57.16;100775.69;6047923;28;20042;-65
2022/06/06 08:53:29;;;;;;;7.38;4.03;;;;;;;21.32;59.91;100775.00;6047445;28;20117;-65
2022/06/06 08:56:31;;;;;;;8.63;4.88;;;;;;;21.53;60.58;100787.34;6068104;28;20114;-65
2022/06/06 09:00:05;;;;;;;9.27;4.50;;;;;;;21.55;61.23;100769.09;6067256;28;20056;-65
2022/06/06 09:03:35;;;;;;;6.47;4.15;;;;;;;21.59;58.03;100768.44;6048624;28;20113;-65
2022/06/06 09:06:39;;;;;;;8.52;3.85;;;;;;;22.01;57.29;100775.06;6048407;28;20729;-65
2022/06/06 09:09:57;;;;;;;6.05;3.58;;;;;;;22.36;54.87;100767.28;6065116;28;20067;-65
2022/06/06 09:13:29;;;;;;;5.85;2.97;;;;;;;22.78;55.11;100760.22;6064790;28;20125;-65
2022/06/06 09:16:59;;;;;;;6.82;3.38;;;;;;;22.65;52.89;100755.81;6049802;28;20406;-65
2022/06/06 09:20:09;;;;;;;8.30;2.90;;;;;;;21.99;54.91;100755.53;6064633;28;20034;-65
2022/06/06 09:23:39;;;;;;;5.70;3.20;;;;;;;21.76;56.55;100766.06;6049208;28;20037;-65
2022/06/06 09:27:03;;;;;;;7.30;3.47;;;;;;;21.63;57.08;100771.53;6065801;28;20077;-65
2022/06/06 09:30:19;;;;;;;5.25;3.25;;;;;;;21.56;56.66;100749.13;6048814;28;20038;-66
2022/06/06 09:33:30;;;;;;;6.53;3.60;;;;;;;21.48;57.11;100760.19;6047370;28;20106;-66
2022/06/06 09:36:43;;;;;;;6.25;3.55;;;;;;;21.65;58.40;100764.03;6048909;28;20118;-65
2022/06/06 09:40:16;;;;;;;6.80;4.00;;;;;;;21.91;56.57;100759.31;6053167;28;20110;-65
2022/06/06 09:43:21;;;;;;;5.22;3.13;;;;;;;22.65;54.86;100754.97;6047607;28;20038;-65
2022/06/06 09:46:33;;;;;;;5.78;3.33;;;;;;;23.40;55.74;100759.94;6048532;28;20057;-65
2022/06/06 09:49:50;;;;;;;5.10;3.40;;;;;;;23.43;52.83;100759.47;6060165;28;20496;-65
2022/06/06 09:53:16;;;;;;;5.53;3.30;;;;;;;23.36;50.93;100753.28;6047729;28;20042;-66
2022/06/06 10:00:02;;;;;;;6.93;2.78;;;;;;;22.77;54.05;100761.31;6049196;28;20046;-66
2022/06/06 10:03:32;;;;;;;5.22;2.88;;;;;;;22.04;52.37;100747.59;6048888;28;20038;-65
2022/06/06 10:06:58;;;;;;;4.90;2.58;;;;;;;21.42;51.81;100748.38;6037190;28;20030;-66
2022/06/06 10:10:23;;;;;;;5.00;2.80;;;;;;;21.19;54.71;100753.50;6057054;28;20122;-65
2022/06/06 10:13:48;;;;;;;4.22;1.90;;;;;;;21.99;51.35;100750.13;6077695;28;20034;-65
2022/06/06 10:17:14;;;;;;;3.10;1.85;;;;;;;22.44;49.94;100739.97;6064220;28;20037;-65
2022/06/06 10:20:31;;;;;;;3.40;1.80;;;;;;;22.98;47.99;100731.09;6037179;28;20545;-66
2022/06/06 10:23:51;;;;;;;3.72;2.00;;;;;;;22.95;47.41;100739.66;6048973;28;20510;-65
2022/06/06 10:27:04;;;;;;;5.57;2.22;;;;;;;22.62;47.52;100739.16;6048622;28;20379;-65
2022/06/06 10:30:10;;;;;;;4.15;2.17;;;;;;;22.77;49.15;100747.78;6064041;28;20420;-66
2022/06/06 10:33:19;;;;;;;6.15;2.40;;;;;;;23.35;48.19;100740.81;6058506;28;20041;-65
2022/06/06 10:36:26;;;;;;;6.47;2.60;;;;;;;23.08;47.18;100744.91;6071834;28;20041;-65
2022/06/06 10:39:41;;;;;;;4.90;2.50;;;;;;;22.49;48.87;100738.25;6076203;28;20117;-65
2022/06/06 10:42:40;;;;;;;3.95;2.28;;;;;;;22.13;51.56;100746.28;6031027;28;20042;-66
2022/06/06 10:46:07;;;;;;;4.18;2.40;;;;;;;21.85;53.95;100737.75;6053023;28;20405;-66
2022/06/06 10:49:09;;;;;;;3.85;2.17;;;;;;;21.82;52.05;100749.00;6052621;28;20133;-65
2022/06/06 10:52:22;;;;;;;3.97;2.10;;;;;;;21.55;53.65;100763.69;6052013;28;20054;-66
2022/06/06 10:55:42;;;;;;;3.65;2.00;;;;;;;21.20;54.83;100764.06;6090325;28;20541;-66
2022/06/06 10:59:01;;;;;;;3.45;2.35;;;;;;;20.79;57.10;100774.31;6049971;28;20038;-65
2022/06/06 11:02:12;;;;;;;4.30;2.67;;;;;;;20.20;60.56;100785.97;6051903;28;20187;-65
2022/06/06 11:05:20;;;;;;;4.05;2.40;;;;;;;19.65;62.59;100772.03;6052246;28;20037;-65
2022/06/06 11:08:24;;;;;;;6.18;2.65;;;;;;;19.11;68.44;100780.03;6042902;28;20038;-65
2022/06/06 11:11:51;;;;;;;4.95;2.60;;;;;;;18.83;72.87;100790.88;6048259;28;20450;-65
2022/06/06 11:14:46;;;;;;;6.55;3.20;;;;;;;19.07;72.51;100776.94;6053780;28;20030;-64
2022/06/06 11:17:56;;;;;;;6.37;3.00;;;;;;;19.87;71.15;100774.31;6052227;28;20042;-65
2022/06/06 11:21:19;;;;;;;3.53;2.30;;;;;;;20.14;65.59;100762.53;6051911;28;20428;-65
2022/06/06 11:24:34;;;;;;;4.95;2.28;;;;;;;20.60;64.13;100753.66;6071307;28;20041;-65
2022/06/06 11:27:35;;;;;;;6.28;2.70;;;;;;;20.81;59.92;100750.69;6066907;28;20069;-66
2022/06/06 11:30:50;;;;;;;4.80;2.30;;;;;;;21.61;55.75;100746.59;6052810;28;20045;-65
2022/06/06 11:33:59;;;;;;;3.30;2.10;;;;;;;21.71;53.67;100730.78;6052367;28;20497;-65
2022/06/06 11:37:17;;;;;;;3.72;2.38;;;;;;;21.89;54.78;100723.63;6051096;28;20463;-66
2022/06/06 11:40:45;;;;;;;4.82;2.55;;;;;;;22.67;54.24;100726.66;6082215;28;20026;-65
2022/06/06 11:43:58;;;;;;;3.78;2.00;;;;;;;22.98;51.00;100718.41;6066401;28;20038;-65
2022/06/06 11:47:14;;;;;;;3.15;2.10;;;;;;;23.36;49.10;100728.09;6043127;28;20064;-66
2022/06/06 11:50:31;;;;;;;3.72;2.65;;;;;;;23.81;47.97;100723.13;6064562;28;20049;-65
2022/06/06 11:53:48;;;;;;;4.00;2.30;;;;;;;24.35;47.19;100722.03;6080113;28;20439;-65
2022/06/06 11:56:59;;;;;;;4.25;2.10;;;;;;;24.06;45.37;100731.84;6051422;28;20512;-66
2022/06/06 12:00:19;;;;;;;2.67;1.65;;;;;;;24.14;47.87;100728.84;6054982;28;20102;-66
2022/06/06 12:03:37;;;;;;;4.07;1.85;;;;;;;23.95;46.44;100727.25;6059401;28;20044;-66
2022/06/06 12:07:02;;;;;;;4.15;1.85;;;;;;;23.81;45.49;100723.13;6060766;28;20037;-66
2022/06/06 12:10:07;;;;;;;;;;;;;;;24.42;44.70;100720.84;6073237;28;20405;-66
2022/06/06 12:13:08;;;;;;;2.90;1.75;;;;;;;24.21;42.58;100713.31;6076245;28;19921;-66
2022/06/06 12:16:24;;;;;;;3.58;1.75;;;;;;;24.16;42.62;100726.75;6051405;28;20577;-66
2022/06/06 12:19:41;;;;;;;2.33;1.50;;;;;;;24.44;41.21;100718.72;6066421;28;20069;-66
2022/06/06 12:22:42;;;;;;;2.45;1.40;;;;;;;24.32;41.01;100706.22;6055097;28;20072;-66
2022/06/06 12:25:57;;;;;;;1.90;1.40;;;;;;;24.11;40.77;100713.03;6050930;28;20038;-65
2022/06/06 12:29:27;;;;;;;2.92;1.90;;;;;;;23.76;40.92;100709.41;6050596;28;20034;-66
2022/06/06 12:32:25;;;;;;;2.75;1.45;;;;;;;23.52;38.73;100709.38;6025489;28;20069;-66
2022/06/06 12:35:50;;;;;;;2.30;1.35;;;;;;;23.02;40.06;100721.47;6052994;28;20040;-66
2022/06/06 12:38:49;;;;;;;;;;;;;;;23.07;39.71;100716.22;6067545;28;20037;-66
2022/06/06 12:42:03;;;;;;;3.50;1.42;;;;;;;23.40;38.51;100700.38;6065344;28;19972;-65
2022/06/06 12:45:10;;;;;;;3.97;1.20;;;;;;;24.06;39.04;100702.03;6082225;28;20543;-66
2022/06/06 12:48:09;;;;;;;3.05;1.40;;;;;;;24.26;36.82;100705.28;6052029;28;20042;-66
2022/06/06 12:51:19;;;;;;;2.95;1.20;;;;;;;24.24;37.52;100696.56;6065408;28;20066;-65
2022/06/06 12:55:20;;;;;;;2.67;1.48;;;;;;;24.74;37.34;100684.13;6049426;28;20068;-66
2022/06/06 12:58:07;;;;;;;2.10;1.30;;;;;;;24.94;36.55;100678.31;6046094;28;20054;-66
2022/06/06 13:05:19;;;;;;;3.00;1.35;;;;;;;25.07;36.38;100679.91;6050599;28;20029;-66
2022/06/06 13:08:20;;;;;;;3.50;1.25;;;;;;;24.48;35.96;100679.22;5999797;28;20077;-66
2022/06/06 13:11:40;;;;;;;2.15;1.15;;;;;;;24.76;35.60;100673.00;6003411;28;20042;-66
2022/06/06 13:15:06;;;;;;;2.08;1.10;;;;;;;24.78;36.61;100665.47;6072076;28;20092;-66
2022/06/06 13:18:16;;;;;;;2.38;1.20;;;;;;;25.48;36.84;100666.06;6047669;28;20441;-66
2022/06/06 13:21:33;;;;;;;1.55;1.33;;;;;;;24.54;38.22;100664.69;6045720;28;20033;-66
2022/06/06 13:24:50;;;;;;;2.75;1.08;;;;;;;24.45;36.58;100660.72;6048743;28;20079;-66
2022/06/06 13:27:51;;;;;;;1.95;1.20;;;;;;;24.94;38.57;100658.50;6050301;28;20037;-66
2022/06/06 13:30:59;;;;;;;4.28;1.25;;;;;;;25.67;36.08;100653.09;6060692;28;20037;-66
2022/06/06 13:34:33;;;;;;;2.80;1.25;;;;;;;26.03;32.49;100658.03;6048989;28;20139;-66
2022/06/06 13:37:44;;;;;;;2.15;1.10;;;;;;;25.63;34.23;100655.47;6036690;28;20041;-66
2022/06/06 13:40:49;;;;;;;1.20;1.10;;;;;;;26.37;35.99;100659.63;6063887;28;20073;-66
2022/06/06 13:43:57;;;;;;;1.83;1.08;;;;;;;26.31;34.95;100660.63;6049548;28;20041;-66
2022/06/06 13:47:03;;;;;;;1.42;0.98;;;;;;;25.65;34.43;100650.63;6091456;28;20418;-65
2022/06/06 13:50:21;;;;;;;5.55;1.35;;;;;;;26.25;34.39;100666.28;6064368;28;20037;-66
2022/06/06 13:53:28;;;;;;;2.30;1.05;;;;;;;26.34;34.12;100656.59;6067050;28;20064;-66
2022/06/06 13:56:47;;;;;;;1.52;1.00;;;;;;;26.79;32.12;100650.97;6051490;28;20034;-66
2022/06/06 13:59:49;;;;;;;1.73;1.10;;;;;;;27.20;32.35;100642.97;6064433;28;20026;-67
2022/06/06 14:03:08;;;;;;;3.85;1.23;;;;;;;25.51;33.31;100673.75;6053279;28;20034;-66
2022/06/06 14:06:24;;;;;;;3.00;1.10;;;;;;;24.98;36.96;100665.06;6065929;28;20469;-67
2022/06/06 14:09:37;;;;;;;2.70;1.02;;;;;;;24.46;37.57;100662.34;6071069;28;20120;-66
2022/06/06 14:13:17;;;;;;;1.92;1.00;;;;;;;24.58;37.23;100665.03;6052799;28;20030;-66
2022/06/06 14:16:34;;;;;;;2.10;1.50;;;;;;;24.49;36.78;100666.47;6054438;28;20042;-67
2022/06/06 14:19:48;;;;;;;1.83;1.00;;;;;;;24.61;35.85;100659.97;6055702;28;20044;-66
2022/06/06 14:22:45;;;;;;;1.98;1.00;;;;;;;24.68;36.80;100667.97;6054430;28;20041;-66
2022/06/06 14:25:45;;;;;;;2.75;1.00;;;;;;;24.56;37.46;100675.31;6053582;28;20030;-66
2022/06/06 14:28:43;;;;;;;2.55;1.10;;;;;;;24.61;37.97;100692.53;6053202;28;20033;-66
2022/06/06 14:31:46;;;;;;;4.30;1.10;;;;;;;23.82;39.09;100689.53;6052897;28;20033;-66
2022/06/06 14:34:43;;;;;;;2.72;0.95;;;;;;;23.38;39.49;100702.50;6069079;28;20071;-66
2022/06/06 14:37:39;;;;;;;1.33;0.95;;;;;;;23.37;39.84;100719.78;6054233;28;20041;-66
2022/06/06 14:40:40;;;;;;;3.13;0.77;;;;;;;23.08;42.46;100724.09;6052957;28;20037;-66
2022/06/06 14:43:56;;;;;;;2.47;1.00;;;;;;;23.41;40.94;100712.84;6064617;28;20117;-66
2022/06/06 14:46:53;;;;;;;0.75;0.70;;;;;;;24.34;40.30;100721.19;6059981;28;20040;-66
2022/06/06 14:53:14;;;;;;;2.30;0.85;;;;;;;24.30;40.83;100724.63;6061881;28;20469;-66
2022/06/06 14:56:19;;;;;;;3.05;1.00;;;;;;;24.61;41.31;100721.53;6068305;28;20044;-66
2022/06/06 14:59:17;;;;;;;1.20;0.80;;;;;;;24.60;39.82;100726.13;6053141;28;20062;-66
2022/06/06 15:02:19;;;;;;;1.25;0.85;;;;;;;25.85;37.21;100743.34;6051764;28;20059;-66
2022/06/06 15:05:22;;;;;;;1.70;0.85;;;;;;;24.46;38.71;100742.91;6052676;28;20033;-66